createdAt,value
2023-02-15T00:00:27.902Z,100.00
2023-02-15T00:02:56.581Z,100.00
2023-02-15T00:05:24.989Z,100.00
2023-02-15T00:07:54.089Z,100.00
2023-02-15T00:10:22.145Z,100.00
2023-02-15T00:12:51.911Z,100.00
2023-02-15T00:15:20.247Z,100.00
2023-02-15T00:17:49.416Z,100.00
2023-02-15T00:20:19.502Z,100.00
2023-02-15T00:22:47.560Z,100.00
2023-02-15T00:25:15.664Z,100.00
2023-02-15T00:27:43.664Z,100.00
2023-02-15T00:30:12.562Z,100.00
2023-02-15T00:32:41.190Z,100.00
2023-02-15T00:35:10.793Z,100.00
2023-02-15T00:37:40.215Z,100.00
2023-02-15T00:40:08.918Z,100.00
2023-02-15T00:42:38.156Z,100.00
2023-02-15T00:45:06.558Z,100.00
2023-02-15T00:47:34.560Z,100.00
2023-02-15T00:50:04.323Z,100.00
2023-02-15T00:52:32.876Z,100.00
2023-02-15T00:55:01.399Z,100.00
2023-02-15T00:57:29.768Z,100.00
2023-02-15T01:00:03.743Z,100.00
2023-02-15T01:02:35.546Z,100.00
2023-02-15T01:05:04.376Z,100.00
2023-02-15T01:07:32.417Z,100.00
2023-02-15T01:10:01.063Z,100.00
2023-02-15T01:12:29.877Z,100.00
2023-02-15T01:14:58.454Z,100.00
2023-02-15T01:17:27.305Z,100.00
2023-02-15T01:19:58.194Z,100.00
2023-02-15T01:22:26.458Z,100.00
2023-02-15T01:24:56.546Z,100.00
2023-02-15T01:27:24.646Z,100.00
2023-02-15T01:29:54.014Z,100.00
2023-02-15T01:32:23.953Z,100.00
2023-02-15T01:34:52.267Z,100.00
2023-02-15T01:37:21.675Z,100.00
2023-02-15T01:39:49.651Z,100.00
2023-02-15T01:42:24.820Z,100.00
2023-02-15T01:44:54.983Z,100.00
2023-02-15T01:47:31.152Z,100.00
2023-02-15T01:50:31.234Z,100.00
2023-02-15T01:53:09.730Z,100.00
2023-02-15T01:55:39.881Z,100.00
2023-02-15T01:58:08.734Z,100.00
2023-02-15T02:00:36.747Z,100.00
2023-02-15T02:03:05.926Z,100.00
2023-02-15T02:05:35.912Z,100.00
2023-02-15T02:08:04.508Z,100.00
2023-02-15T02:10:34.935Z,100.00
2023-02-15T02:13:05.594Z,100.00
2023-02-15T02:15:57.340Z,100.00
2023-02-15T02:18:55.382Z,100.00
2023-02-15T02:21:50.745Z,100.00
2023-02-15T02:24:58.478Z,100.00
2023-02-15T02:27:35.789Z,100.00
2023-02-15T02:30:46.880Z,100.00
2023-02-15T02:33:22.179Z,100.00
2023-02-15T02:36:05.422Z,100.00
2023-02-15T02:39:02.308Z,100.00
2023-02-15T02:41:59.914Z,100.00
2023-02-15T02:44:35.084Z,100.00
2023-02-15T02:47:20.553Z,100.00
2023-02-15T02:49:48.825Z,100.00
2023-02-15T02:52:42.851Z,100.00
2023-02-15T02:55:16.584Z,100.00
2023-02-15T02:58:34.437Z,100.00
2023-02-15T03:01:09.558Z,100.00
2023-02-15T03:03:49.396Z,100.00
2023-02-15T03:06:20.134Z,100.00
2023-02-15T03:08:55.038Z,100.00
2023-02-15T03:11:23.201Z,100.00
2023-02-15T03:13:52.784Z,100.00
2023-02-15T03:16:27.015Z,100.00
2023-02-15T03:19:00.143Z,100.00
2023-02-15T03:21:39.920Z,100.00
2023-02-15T03:24:33.556Z,100.00
2023-02-15T03:27:03.829Z,100.00
2023-02-15T03:29:32.022Z,100.00
2023-02-15T03:32:02.896Z,100.00
2023-02-15T03:34:30.945Z,100.00
2023-02-15T03:37:01.680Z,100.00
2023-02-15T03:39:50.561Z,100.00
2023-02-15T03:42:32.113Z,100.00
2023-02-15T03:45:04.750Z,100.00
2023-02-15T03:47:53.654Z,100.00
2023-02-15T03:50:50.505Z,100.00
2023-02-15T03:53:22.058Z,100.00
2023-02-15T03:55:57.106Z,100.00
2023-02-15T03:58:43.999Z,100.00
2023-02-15T04:01:36.277Z,100.00
2023-02-15T04:04:08.924Z,100.00
2023-02-15T04:06:37.010Z,100.00
2023-02-15T04:09:23.639Z,100.00
2023-02-15T04:11:53.832Z,100.00
2023-02-15T04:14:40.354Z,100.00
2023-02-15T04:17:10.742Z,100.00
2023-02-15T04:19:58.464Z,100.00
2023-02-15T04:22:45.292Z,100.00
2023-02-15T04:25:16.333Z,100.00
2023-02-15T04:27:50.097Z,100.00
2023-02-15T04:30:19.701Z,100.00
2023-02-15T04:32:48.108Z,100.00
2023-02-15T04:35:16.255Z,100.00
2023-02-15T04:37:50.311Z,100.00
2023-02-15T04:40:19.705Z,100.00
2023-02-15T04:42:51.048Z,100.00
2023-02-15T04:45:19.111Z,100.00
2023-02-15T04:47:47.694Z,100.00
2023-02-15T04:50:16.062Z,100.00
2023-02-15T04:52:45.567Z,100.00
2023-02-15T04:55:15.368Z,100.00
2023-02-15T04:57:44.080Z,100.00
2023-02-15T05:00:13.286Z,100.00
2023-02-15T05:02:41.493Z,100.00
2023-02-15T05:05:10.642Z,100.00
2023-02-15T05:07:38.927Z,100.00
2023-02-15T05:10:08.036Z,100.00
2023-02-15T05:12:36.672Z,100.00
2023-02-15T05:15:05.029Z,100.00
2023-02-15T05:17:33.685Z,100.00
2023-02-15T05:20:01.709Z,100.00
2023-02-15T05:22:29.923Z,100.00
2023-02-15T05:25:16.799Z,100.00
2023-02-15T05:28:05.253Z,100.00
2023-02-15T05:30:34.186Z,100.00
2023-02-15T05:33:04.081Z,100.00
2023-02-15T05:35:33.147Z,100.00
2023-02-15T05:38:01.221Z,100.00
2023-02-15T05:40:29.470Z,100.00
2023-02-15T05:42:58.025Z,100.00
2023-02-15T05:45:27.195Z,100.00
2023-02-15T05:47:59.465Z,100.00
2023-02-15T05:50:30.827Z,100.00
2023-02-15T05:53:06.705Z,100.00
2023-02-15T05:55:34.898Z,100.00
2023-02-15T05:58:02.933Z,100.00
2023-02-15T06:00:31.158Z,100.00
2023-02-15T06:02:59.189Z,100.00
2023-02-15T06:05:27.429Z,100.00
2023-02-15T06:07:56.381Z,100.00
2023-02-15T06:10:50.248Z,100.00
2023-02-15T06:13:18.443Z,100.00
2023-02-15T06:15:46.575Z,100.00
2023-02-15T06:18:15.537Z,100.00
2023-02-15T06:20:43.794Z,100.00
2023-02-15T06:23:12.088Z,100.00
2023-02-15T06:25:40.182Z,100.00
2023-02-15T06:28:08.319Z,100.00
2023-02-15T06:30:36.460Z,100.00
2023-02-15T06:33:05.218Z,100.00
2023-02-15T06:35:33.783Z,100.00
2023-02-15T06:38:02.417Z,100.00
2023-02-15T06:40:30.991Z,100.00
2023-02-15T06:43:02.217Z,100.00
2023-02-15T06:45:30.479Z,100.00
2023-02-15T06:47:58.538Z,100.00
2023-02-15T06:50:27.150Z,100.00
2023-02-15T06:52:58.921Z,100.00
2023-02-15T06:55:27.431Z,100.00
2023-02-15T06:57:55.676Z,100.00
2023-02-15T07:00:24.344Z,100.00
2023-02-15T07:02:56.761Z,100.00
2023-02-15T07:05:32.175Z,100.00
2023-02-15T07:08:00.726Z,100.00
2023-02-15T07:10:29.272Z,100.00
2023-02-15T07:12:57.594Z,100.00
2023-02-15T07:15:26.075Z,100.00
2023-02-15T07:17:54.647Z,100.00
2023-02-15T07:20:23.819Z,100.00
2023-02-15T07:22:52.014Z,100.00
2023-02-15T07:25:20.613Z,100.00
2023-02-15T07:27:49.116Z,100.00
2023-02-15T07:30:17.688Z,100.00
2023-02-15T07:33:06.691Z,100.00
2023-02-15T07:35:35.041Z,100.00
2023-02-15T07:38:03.202Z,100.00
2023-02-15T07:40:31.501Z,100.00
2023-02-15T07:43:00.272Z,100.00
2023-02-15T07:45:29.045Z,100.00
2023-02-15T07:48:02.091Z,100.00
2023-02-15T07:50:31.415Z,100.00
2023-02-15T07:52:59.531Z,100.00
2023-02-15T07:55:27.554Z,100.00
2023-02-15T07:57:55.752Z,100.00
2023-02-15T08:00:26.510Z,100.00
2023-02-15T08:03:14.590Z,100.00
2023-02-15T08:05:44.835Z,100.00
2023-02-15T08:08:31.785Z,100.00
2023-02-15T08:11:24.555Z,100.00
2023-02-15T08:13:56.473Z,100.00
2023-02-15T08:16:33.585Z,100.00
2023-02-15T08:19:06.150Z,100.00
2023-02-15T08:21:35.675Z,100.00
2023-02-15T08:24:04.358Z,100.00
2023-02-15T08:26:35.715Z,100.00
2023-02-15T08:29:04.412Z,100.00
2023-02-15T08:31:32.616Z,100.00
2023-02-15T08:34:00.783Z,100.00
2023-02-15T08:36:29.946Z,100.00
2023-02-15T08:38:59.088Z,100.00
2023-02-15T08:41:37.038Z,100.00
2023-02-15T08:44:08.750Z,100.00
2023-02-15T08:46:42.644Z,100.00
2023-02-15T08:49:14.893Z,100.00
2023-02-15T08:51:43.825Z,100.00
2023-02-15T08:54:17.718Z,100.00
2023-02-15T08:56:46.100Z,100.00
2023-02-15T08:59:19.074Z,99.87
2023-02-15T09:01:47.538Z,94.31
2023-02-15T09:04:16.977Z,91.07
2023-02-15T09:06:48.374Z,84.01
2023-02-15T09:09:23.452Z,79.84
2023-02-15T09:11:58.603Z,75.66
2023-02-15T09:14:28.006Z,73.00
2023-02-15T09:16:57.300Z,69.46
2023-02-15T09:19:26.012Z,66.92
2023-02-15T09:21:54.628Z,64.38
2023-02-15T09:24:23.083Z,64.97
2023-02-15T09:26:53.582Z,62.76
2023-02-15T09:29:21.806Z,58.85
2023-02-15T09:31:51.249Z,56.14
2023-02-15T09:34:21.375Z,56.78
2023-02-15T09:36:49.897Z,56.53
2023-02-15T09:39:20.036Z,55.97
2023-02-15T09:42:14.570Z,54.89
2023-02-15T09:45:05.056Z,53.39
2023-02-15T09:47:45.723Z,52.72
2023-02-15T09:50:36.762Z,50.40
2023-02-15T09:53:29.278Z,49.53
2023-02-15T09:56:06.661Z,49.63
2023-02-15T09:58:42.261Z,49.33
2023-02-15T10:01:26.798Z,48.90
2023-02-15T10:04:07.330Z,48.30
2023-02-15T10:06:45.525Z,47.56
2023-02-15T10:09:44.914Z,46.44
2023-02-15T10:12:28.245Z,46.05
2023-02-15T10:15:35.637Z,45.89
2023-02-15T10:18:15.943Z,45.16
2023-02-15T10:21:06.926Z,44.10
2023-02-15T10:23:55.292Z,45.36
2023-02-15T10:26:42.102Z,43.93
2023-02-15T10:29:17.314Z,42.39
2023-02-15T10:31:54.135Z,40.79
2023-02-15T10:34:48.561Z,39.28
2023-02-15T10:37:56.216Z,38.97
2023-02-15T10:41:01.033Z,39.53
2023-02-15T10:43:32.453Z,37.73
2023-02-15T10:46:11.634Z,38.58
2023-02-15T10:48:47.025Z,38.74
2023-02-15T10:51:25.104Z,38.81
2023-02-15T10:54:06.928Z,37.64
2023-02-15T10:56:45.238Z,36.03
2023-02-15T10:59:35.212Z,34.94
2023-02-15T11:02:11.962Z,35.42
2023-02-15T11:04:55.813Z,35.54
2023-02-15T11:07:26.977Z,35.56
2023-02-15T11:10:08.876Z,36.25
2023-02-15T11:12:37.202Z,35.78
2023-02-15T11:15:16.543Z,35.59
2023-02-15T11:18:00.578Z,34.87
2023-02-15T11:20:34.536Z,33.60
2023-02-15T11:23:02.933Z,33.46
2023-02-15T11:25:35.111Z,33.55
2023-02-15T11:28:05.469Z,33.70
2023-02-15T11:30:57.862Z,33.79
2023-02-15T11:33:29.349Z,32.99
2023-02-15T11:36:04.830Z,32.66
2023-02-15T11:38:34.002Z,32.66
2023-02-15T11:41:15.687Z,31.87
2023-02-15T11:44:00.400Z,32.18
2023-02-15T11:46:29.863Z,32.19
2023-02-15T11:48:59.531Z,32.02
2023-02-15T11:51:28.914Z,31.87
2023-02-15T11:53:57.375Z,32.56
2023-02-15T11:56:26.208Z,32.87
2023-02-15T11:59:08.557Z,32.97
2023-02-15T12:01:39.525Z,32.42
2023-02-15T12:04:42.458Z,32.87
2023-02-15T12:07:27.159Z,32.70
2023-02-15T12:10:23.041Z,33.12
2023-02-15T12:13:19.198Z,32.98
2023-02-15T12:15:57.310Z,32.03
2023-02-15T12:18:45.365Z,31.34
2023-02-15T12:21:24.863Z,31.63
2023-02-15T12:23:54.889Z,32.03
2023-02-15T12:26:31.736Z,32.90
2023-02-15T12:29:03.221Z,33.49
2023-02-15T12:31:37.882Z,32.44
2023-02-15T12:34:28.035Z,31.94
2023-02-15T12:36:59.197Z,32.35
2023-02-15T12:39:28.671Z,31.51
2023-02-15T12:41:57.127Z,30.52
2023-02-15T12:44:30.120Z,30.36
2023-02-15T12:47:06.419Z,30.01
2023-02-15T12:49:35.738Z,30.47
2023-02-15T12:52:18.789Z,30.79
2023-02-15T12:54:47.328Z,31.22
2023-02-15T12:57:15.580Z,31.59
2023-02-15T12:59:51.966Z,31.46
2023-02-15T13:02:25.062Z,31.39
2023-02-15T13:04:53.111Z,31.83
2023-02-15T13:07:21.794Z,32.27
2023-02-15T13:09:50.785Z,33.14
2023-02-15T13:12:27.850Z,33.06
2023-02-15T13:14:58.762Z,33.46
2023-02-15T13:17:32.199Z,33.90
2023-02-15T13:20:25.720Z,34.70
2023-02-15T13:23:05.320Z,35.16
2023-02-15T13:25:48.562Z,35.55
2023-02-15T13:28:17.961Z,35.73
2023-02-15T13:30:48.552Z,36.21
2023-02-15T13:33:36.998Z,36.04
2023-02-15T13:36:21.805Z,35.73
2023-02-15T13:38:53.034Z,35.42
2023-02-15T13:41:26.109Z,34.79
2023-02-15T13:44:26.119Z,34.36
2023-02-15T13:47:06.750Z,33.61
2023-02-15T13:49:49.174Z,33.17
2023-02-15T13:52:24.737Z,33.42
2023-02-15T13:55:11.562Z,33.00
2023-02-15T13:58:08.161Z,32.61
2023-02-15T14:00:48.418Z,32.31
2023-02-15T14:03:41.174Z,31.81
2023-02-15T14:06:35.709Z,31.90
2023-02-15T14:09:11.816Z,31.77
2023-02-15T14:11:55.378Z,31.78
2023-02-15T14:15:08.873Z,31.74
2023-02-15T14:17:48.971Z,32.34
2023-02-15T14:20:37.729Z,32.54
2023-02-15T14:23:08.867Z,32.75
2023-02-15T14:25:49.528Z,32.36
2023-02-15T14:28:46.468Z,32.32
2023-02-15T14:31:15.214Z,32.37
2023-02-15T14:34:01.860Z,32.30
2023-02-15T14:36:31.325Z,32.45
2023-02-15T14:40:01.180Z,32.92
2023-02-15T14:42:35.738Z,33.64
2023-02-15T14:45:17.029Z,34.54
2023-02-15T14:48:17.646Z,35.15
2023-02-15T14:50:47.374Z,35.68
2023-02-15T14:53:18.581Z,36.35
2023-02-15T14:55:47.066Z,36.76
2023-02-15T14:58:15.201Z,37.14
2023-02-15T15:00:43.382Z,37.69
2023-02-15T15:03:22.874Z,38.42
2023-02-15T15:05:54.210Z,38.85
2023-02-15T15:08:28.065Z,39.06
2023-02-15T15:10:56.753Z,39.27
2023-02-15T15:13:34.168Z,39.17
2023-02-15T15:16:37.132Z,38.83
2023-02-15T15:19:07.432Z,38.93
2023-02-15T15:21:51.100Z,38.71
2023-02-15T15:24:38.247Z,38.92
2023-02-15T15:27:41.071Z,39.09
2023-02-15T15:30:15.166Z,39.27
2023-02-15T15:32:56.208Z,39.55
2023-02-15T15:36:06.693Z,39.63
2023-02-15T15:39:00.006Z,39.95
2023-02-15T15:41:56.684Z,40.31
2023-02-15T15:44:43.230Z,40.42
2023-02-15T15:47:32.083Z,40.66
2023-02-15T15:50:02.054Z,40.93
2023-02-15T15:52:32.592Z,40.74
2023-02-15T15:55:07.098Z,41.25
2023-02-15T15:57:38.798Z,41.21
2023-02-15T16:00:45.739Z,41.65
2023-02-15T16:03:21.423Z,41.85
2023-02-15T16:05:55.391Z,41.80
2023-02-15T16:08:35.986Z,42.06
2023-02-15T16:11:34.189Z,42.15
2023-02-15T16:14:02.429Z,42.60
2023-02-15T16:16:30.720Z,42.66
2023-02-15T16:19:00.788Z,42.85
2023-02-15T16:21:33.021Z,42.59
2023-02-15T16:24:15.012Z,42.67
2023-02-15T16:27:14.747Z,42.37
2023-02-15T16:29:43.231Z,43.02
2023-02-15T16:32:25.732Z,42.99
2023-02-15T16:34:58.670Z,43.03
2023-02-15T16:37:28.564Z,43.10
2023-02-15T16:39:56.679Z,43.39
2023-02-15T16:42:26.200Z,43.12
2023-02-15T16:45:09.067Z,43.30
2023-02-15T16:47:44.978Z,43.72
2023-02-15T16:50:25.414Z,44.06
2023-02-15T16:52:55.585Z,44.19
2023-02-15T16:55:25.659Z,44.42
2023-02-15T16:58:00.014Z,44.55
2023-02-15T17:00:32.080Z,44.69
2023-02-15T17:03:03.029Z,44.95
2023-02-15T17:05:33.340Z,45.19
2023-02-15T17:08:05.574Z,45.10
2023-02-15T17:10:39.902Z,45.60
2023-02-15T17:13:15.029Z,45.68
2023-02-15T17:16:07.793Z,45.97
2023-02-15T17:18:46.056Z,46.37
2023-02-15T17:21:18.821Z,46.79
2023-02-15T17:23:48.520Z,47.29
2023-02-15T17:26:20.671Z,47.65
2023-02-15T17:28:57.348Z,48.33
2023-02-15T17:31:32.991Z,48.77
2023-02-15T17:34:05.781Z,49.08
2023-02-15T17:36:35.061Z,49.47
2023-02-15T17:39:10.900Z,49.85
2023-02-15T17:41:40.842Z,50.02
2023-02-15T17:44:14.963Z,50.22
2023-02-15T17:46:44.522Z,49.93
2023-02-15T17:49:23.302Z,50.19
2023-02-15T17:51:51.424Z,50.43
2023-02-15T17:54:38.901Z,50.47
2023-02-15T17:57:13.015Z,50.56
2023-02-15T18:00:00.860Z,51.02
2023-02-15T18:02:51.857Z,51.08
2023-02-15T18:05:42.546Z,51.51
2023-02-15T18:08:37.991Z,51.78
2023-02-15T18:11:27.063Z,52.29
2023-02-15T18:14:00.707Z,52.76
2023-02-15T18:16:37.555Z,53.25
2023-02-15T18:19:17.810Z,53.69
2023-02-15T18:21:46.148Z,54.09
2023-02-15T18:24:24.957Z,54.48
2023-02-15T18:26:54.280Z,55.04
2023-02-15T18:29:22.729Z,55.00
2023-02-15T18:31:53.534Z,55.28
2023-02-15T18:34:25.799Z,55.88
2023-02-15T18:36:54.378Z,56.05
2023-02-15T18:39:40.994Z,56.17
2023-02-15T18:42:21.814Z,57.03
2023-02-15T18:45:05.464Z,57.31
2023-02-15T18:47:34.279Z,57.80
2023-02-15T18:50:02.368Z,58.50
2023-02-15T18:52:32.690Z,59.19
2023-02-15T18:55:02.920Z,59.89
2023-02-15T18:57:31.326Z,60.28
2023-02-15T18:59:59.363Z,61.29
2023-02-15T19:02:29.284Z,62.29
2023-02-15T19:04:57.355Z,63.13
2023-02-15T19:07:26.873Z,64.75
2023-02-15T19:09:57.244Z,66.10
2023-02-15T19:12:25.454Z,67.35
2023-02-15T19:14:59.089Z,68.73
2023-02-15T19:17:28.259Z,69.63
2023-02-15T19:19:56.335Z,70.26
2023-02-15T19:22:29.577Z,70.53
2023-02-15T19:25:00.978Z,71.14
2023-02-15T19:27:31.992Z,71.86
2023-02-15T19:30:00.265Z,72.58
2023-02-15T19:32:31.871Z,73.21
2023-02-15T19:35:00.366Z,73.62
2023-02-15T19:37:37.324Z,73.65
2023-02-15T19:40:07.514Z,74.43
2023-02-15T19:42:35.744Z,75.06
2023-02-15T19:45:13.651Z,76.46
2023-02-15T19:47:43.503Z,77.69
2023-02-15T19:50:20.352Z,77.19
2023-02-15T19:52:48.515Z,77.78
2023-02-15T19:55:26.448Z,76.65
2023-02-15T19:57:55.858Z,76.32
2023-02-15T20:00:32.702Z,75.99
2023-02-15T20:03:02.026Z,76.57
2023-02-15T20:05:31.053Z,76.88
2023-02-15T20:07:59.118Z,77.48
2023-02-15T20:10:29.139Z,78.10
2023-02-15T20:12:57.360Z,79.37
2023-02-15T20:15:33.551Z,80.36
2023-02-15T20:18:04.285Z,81.89
2023-02-15T20:20:44.828Z,82.65
2023-02-15T20:23:30.700Z,84.35
2023-02-15T20:26:02.217Z,86.21
2023-02-15T20:28:31.720Z,87.41
2023-02-15T20:31:00.227Z,88.68
2023-02-15T20:33:28.645Z,91.26
2023-02-15T20:35:57.884Z,91.71
2023-02-15T20:38:28.349Z,94.32
2023-02-15T20:41:15.304Z,96.30
2023-02-15T20:43:43.377Z,97.16
2023-02-15T20:46:11.697Z,99.22
2023-02-15T20:48:40.330Z,99.69
2023-02-15T20:51:18.532Z,100.00
2023-02-15T20:53:47.965Z,100.00
2023-02-15T20:56:20.771Z,100.00
2023-02-15T20:58:49.063Z,100.00
2023-02-15T21:01:19.924Z,100.00
2023-02-15T21:03:48.501Z,100.00
2023-02-15T21:06:20.942Z,100.00
2023-02-15T21:08:49.066Z,100.00
2023-02-15T21:11:21.180Z,100.00
2023-02-15T21:14:23.441Z,100.00
2023-02-15T21:16:51.632Z,100.00
2023-02-15T21:19:21.243Z,100.00
2023-02-15T21:21:51.466Z,100.00
2023-02-15T21:24:20.762Z,100.00
2023-02-15T21:26:49.204Z,100.00
2023-02-15T21:29:18.710Z,100.00
2023-02-15T21:31:47.158Z,100.00
2023-02-15T21:34:15.733Z,100.00
2023-02-15T21:36:44.350Z,100.00
2023-02-15T21:39:18.282Z,100.00
2023-02-15T21:42:06.536Z,100.00
2023-02-15T21:44:53.298Z,100.00
2023-02-15T21:47:50.801Z,100.00
2023-02-15T21:50:39.501Z,100.00
2023-02-15T21:53:09.828Z,100.00
2023-02-15T21:55:38.847Z,100.00
2023-02-15T21:58:07.237Z,100.00
2023-02-15T22:00:36.301Z,100.00
2023-02-15T22:03:04.447Z,100.00
2023-02-15T22:05:33.439Z,100.00
2023-02-15T22:08:01.666Z,100.00
2023-02-15T22:10:32.936Z,100.00
2023-02-15T22:13:01.824Z,100.00
2023-02-15T22:15:36.824Z,100.00
2023-02-15T22:18:05.581Z,100.00
2023-02-15T22:20:34.879Z,100.00
2023-02-15T22:23:03.273Z,100.00
2023-02-15T22:25:31.769Z,100.00
2023-02-15T22:28:00.112Z,100.00
2023-02-15T22:30:30.679Z,100.00
2023-02-15T22:32:58.881Z,100.00
2023-02-15T22:35:29.453Z,100.00
2023-02-15T22:37:58.159Z,100.00
2023-02-15T22:40:33.941Z,100.00
2023-02-15T22:43:03.756Z,100.00
2023-02-15T22:45:32.349Z,100.00
2023-02-15T22:48:00.738Z,100.00
2023-02-15T22:50:30.788Z,100.00
2023-02-15T22:53:02.389Z,100.00
2023-02-15T22:55:33.855Z,100.00
2023-02-15T22:58:01.905Z,100.00
2023-02-15T23:00:32.898Z,100.00
2023-02-15T23:03:00.906Z,100.00
2023-02-15T23:05:30.652Z,100.00
2023-02-15T23:08:11.576Z,100.00
2023-02-15T23:10:40.535Z,100.00
2023-02-15T23:13:25.559Z,100.00
2023-02-15T23:15:58.713Z,100.00
2023-02-15T23:18:38.533Z,100.00
2023-02-15T23:21:10.914Z,100.00
2023-02-15T23:23:41.711Z,100.00
2023-02-15T23:26:27.866Z,100.00
2023-02-15T23:28:57.345Z,100.00
2023-02-15T23:31:29.864Z,100.00
2023-02-15T23:34:12.802Z,100.00
2023-02-15T23:36:41.104Z,100.00
2023-02-15T23:39:34.338Z,100.00
2023-02-15T23:42:10.684Z,100.00
2023-02-15T23:44:38.782Z,100.00
2023-02-15T23:47:07.401Z,100.00
2023-02-15T23:49:35.591Z,100.00
2023-02-15T23:52:06.191Z,100.00
2023-02-15T23:54:35.541Z,100.00
2023-02-15T23:57:04.061Z,100.00
2023-02-15T23:59:32.399Z,100.00
